sensor_id;sensor_type;location;lat;lon;timestamp;P1;durP1;ratioP1;P2;durP2;ratioP2
76439;SDS011;65274;44.982;20.060;2023-08-06T00:00:52;8.73;;;4.95;;
76439;SDS011;65274;44.982;20.060;2023-08-06T00:03:18;5.78;;;3.90;;
76439;SDS011;65274;44.982;20.060;2023-08-06T00:05:44;14.48;;;8.43;;
76439;SDS011;65274;44.982;20.060;2023-08-06T00:08:10;30.67;;;16.65;;
76439;SDS011;65274;44.982;20.060;2023-08-06T00:10:36;31.88;;;15.30;;
76439;SDS011;65274;44.982;20.060;2023-08-06T00:13:03;33.47;;;17.17;;
76439;SDS011;65274;44.982;20.060;2023-08-06T00:15:31;42.05;;;20.30;;
76439;SDS011;65274;44.982;20.060;2023-08-06T00:17:57;32.72;;;16.48;;
76439;SDS011;65274;44.982;20.060;2023-08-06T00:20:23;31.83;;;16.40;;
76439;SDS011;65274;44.982;20.060;2023-08-06T00:22:49;33.47;;;16.90;;
76439;SDS011;65274;44.982;20.060;2023-08-06T00:25:15;30.83;;;14.57;;
76439;SDS011;65274;44.982;20.060;2023-08-06T00:27:41;21.17;;;11.55;;
76439;SDS011;65274;44.982;20.060;2023-08-06T00:30:07;24.58;;;12.25;;
76439;SDS011;65274;44.982;20.060;2023-08-06T00:32:33;13.75;;;7.38;;
76439;SDS011;65274;44.982;20.060;2023-08-06T00:34:59;15.02;;;8.05;;
76439;SDS011;65274;44.982;20.060;2023-08-06T00:37:26;20.42;;;10.80;;
76439;SDS011;65274;44.982;20.060;2023-08-06T00:39:52;19.98;;;10.75;;
76439;SDS011;65274;44.982;20.060;2023-08-06T00:42:18;26.02;;;13.48;;
76439;SDS011;65274;44.982;20.060;2023-08-06T00:44:45;15.40;;;8.50;;
76439;SDS011;65274;44.982;20.060;2023-08-06T00:47:11;15.05;;;8.23;;
76439;SDS011;65274;44.982;20.060;2023-08-06T00:49:38;16.85;;;8.80;;
76439;SDS011;65274;44.982;20.060;2023-08-06T00:52:05;18.40;;;10.20;;
76439;SDS011;65274;44.982;20.060;2023-08-06T00:54:32;12.50;;;7.07;;
76439;SDS011;65274;44.982;20.060;2023-08-06T00:56:58;11.27;;;7.40;;
76439;SDS011;65274;44.982;20.060;2023-08-06T00:59:25;10.75;;;6.30;;
76439;SDS011;65274;44.982;20.060;2023-08-06T01:01:51;6.18;;;3.97;;
76439;SDS011;65274;44.982;20.060;2023-08-06T01:04:17;8.75;;;5.05;;
76439;SDS011;65274;44.982;20.060;2023-08-06T01:09:20;5.00;;;3.42;;
76439;SDS011;65274;44.982;20.060;2023-08-06T01:17:01;4.93;;;3.38;;
76439;SDS011;65274;44.982;20.060;2023-08-06T01:19:28;5.47;;;4.50;;
76439;SDS011;65274;44.982;20.060;2023-08-06T01:21:55;5.18;;;3.03;;
76439;SDS011;65274;44.982;20.060;2023-08-06T01:24:21;3.58;;;3.25;;
76439;SDS011;65274;44.982;20.060;2023-08-06T01:27:30;4.00;;;2.70;;
76439;SDS011;65274;44.982;20.060;2023-08-06T01:29:39;7.60;;;4.30;;
76439;SDS011;65274;44.982;20.060;2023-08-06T01:32:08;9.65;;;6.32;;
76439;SDS011;65274;44.982;20.060;2023-08-06T01:34:35;14.68;;;7.47;;
76439;SDS011;65274;44.982;20.060;2023-08-06T01:37:03;9.70;;;5.80;;
76439;SDS011;65274;44.982;20.060;2023-08-06T01:39:29;5.30;;;3.95;;
76439;SDS011;65274;44.982;20.060;2023-08-06T01:41:55;5.82;;;4.35;;
76439;SDS011;65274;44.982;20.060;2023-08-06T01:44:21;5.13;;;3.80;;
76439;SDS011;65274;44.982;20.060;2023-08-06T01:46:48;8.20;;;5.32;;
76439;SDS011;65274;44.982;20.060;2023-08-06T01:49:14;5.20;;;3.60;;
76439;SDS011;65274;44.982;20.060;2023-08-06T01:51:40;4.18;;;3.10;;
76439;SDS011;65274;44.982;20.060;2023-08-06T01:54:06;3.92;;;2.70;;
76439;SDS011;65274;44.982;20.060;2023-08-06T01:56:32;4.22;;;3.03;;
76439;SDS011;65274;44.982;20.060;2023-08-06T01:58:58;4.10;;;2.88;;
76439;SDS011;65274;44.982;20.060;2023-08-06T02:01:24;2.78;;;2.30;;
76439;SDS011;65274;44.982;20.060;2023-08-06T02:03:50;3.78;;;2.70;;
76439;SDS011;65274;44.982;20.060;2023-08-06T02:06:16;4.22;;;2.60;;
76439;SDS011;65274;44.982;20.060;2023-08-06T02:08:42;4.20;;;3.13;;
76439;SDS011;65274;44.982;20.060;2023-08-06T02:11:09;3.33;;;2.92;;
76439;SDS011;65274;44.982;20.060;2023-08-06T02:13:36;3.13;;;2.13;;
76439;SDS011;65274;44.982;20.060;2023-08-06T02:16:02;3.20;;;2.17;;
76439;SDS011;65274;44.982;20.060;2023-08-06T02:18:28;2.72;;;2.28;;
76439;SDS011;65274;44.982;20.060;2023-08-06T02:20:57;3.30;;;2.60;;
76439;SDS011;65274;44.982;20.060;2023-08-06T02:23:24;3.35;;;2.30;;
76439;SDS011;65274;44.982;20.060;2023-08-06T02:28:46;2.65;;;2.10;;
76439;SDS011;65274;44.982;20.060;2023-08-06T02:31:13;2.67;;;2.08;;
76439;SDS011;65274;44.982;20.060;2023-08-06T02:33:39;2.97;;;2.17;;
76439;SDS011;65274;44.982;20.060;2023-08-06T02:36:05;2.28;;;2.08;;
76439;SDS011;65274;44.982;20.060;2023-08-06T02:38:31;2.17;;;1.80;;
76439;SDS011;65274;44.982;20.060;2023-08-06T02:40:57;3.03;;;2.72;;
76439;SDS011;65274;44.982;20.060;2023-08-06T02:43:23;3.45;;;2.17;;
76439;SDS011;65274;44.982;20.060;2023-08-06T02:45:50;3.20;;;1.90;;
76439;SDS011;65274;44.982;20.060;2023-08-06T02:48:16;2.78;;;2.35;;
76439;SDS011;65274;44.982;20.060;2023-08-06T02:50:43;4.00;;;2.47;;
76439;SDS011;65274;44.982;20.060;2023-08-06T02:53:09;4.75;;;2.80;;
76439;SDS011;65274;44.982;20.060;2023-08-06T02:55:36;4.25;;;2.45;;
76439;SDS011;65274;44.982;20.060;2023-08-06T02:58:03;3.10;;;2.33;;
76439;SDS011;65274;44.982;20.060;2023-08-06T03:00:29;2.47;;;2.28;;
76439;SDS011;65274;44.982;20.060;2023-08-06T03:02:55;3.08;;;2.35;;
76439;SDS011;65274;44.982;20.060;2023-08-06T03:05:22;3.60;;;2.55;;
76439;SDS011;65274;44.982;20.060;2023-08-06T03:07:48;2.10;;;1.88;;
76439;SDS011;65274;44.982;20.060;2023-08-06T03:10:14;3.25;;;2.08;;
76439;SDS011;65274;44.982;20.060;2023-08-06T03:12:40;2.70;;;2.13;;
76439;SDS011;65274;44.982;20.060;2023-08-06T03:15:06;3.78;;;2.33;;
76439;SDS011;65274;44.982;20.060;2023-08-06T03:17:32;3.53;;;2.67;;
76439;SDS011;65274;44.982;20.060;2023-08-06T03:19:58;2.80;;;2.13;;
76439;SDS011;65274;44.982;20.060;2023-08-06T03:22:24;2.55;;;1.55;;
76439;SDS011;65274;44.982;20.060;2023-08-06T03:24:50;3.22;;;2.55;;
76439;SDS011;65274;44.982;20.060;2023-08-06T03:27:19;4.47;;;2.65;;
76439;SDS011;65274;44.982;20.060;2023-08-06T03:29:48;3.90;;;2.97;;
76439;SDS011;65274;44.982;20.060;2023-08-06T03:32:14;2.97;;;2.25;;
76439;SDS011;65274;44.982;20.060;2023-08-06T03:34:40;2.78;;;2.42;;
76439;SDS011;65274;44.982;20.060;2023-08-06T03:37:06;2.88;;;2.33;;
76439;SDS011;65274;44.982;20.060;2023-08-06T03:39:32;3.88;;;3.35;;
76439;SDS011;65274;44.982;20.060;2023-08-06T03:41:58;3.67;;;2.75;;
76439;SDS011;65274;44.982;20.060;2023-08-06T03:44:24;4.70;;;3.22;;
76439;SDS011;65274;44.982;20.060;2023-08-06T03:46:52;4.47;;;3.08;;
76439;SDS011;65274;44.982;20.060;2023-08-06T03:49:18;2.90;;;2.42;;
76439;SDS011;65274;44.982;20.060;2023-08-06T03:51:44;2.97;;;2.38;;
76439;SDS011;65274;44.982;20.060;2023-08-06T03:54:10;3.10;;;2.58;;
76439;SDS011;65274;44.982;20.060;2023-08-06T03:56:36;4.03;;;2.60;;
76439;SDS011;65274;44.982;20.060;2023-08-06T03:59:02;2.72;;;2.08;;
76439;SDS011;65274;44.982;20.060;2023-08-06T04:01:28;3.63;;;2.60;;
76439;SDS011;65274;44.982;20.060;2023-08-06T04:03:54;3.78;;;2.60;;
76439;SDS011;65274;44.982;20.060;2023-08-06T04:06:20;2.40;;;2.17;;
76439;SDS011;65274;44.982;20.060;2023-08-06T04:08:46;3.42;;;2.50;;
76439;SDS011;65274;44.982;20.060;2023-08-06T04:11:12;2.35;;;2.05;;
76439;SDS011;65274;44.982;20.060;2023-08-06T04:13:41;3.67;;;2.35;;
76439;SDS011;65274;44.982;20.060;2023-08-06T04:16:08;3.38;;;2.85;;
76439;SDS011;65274;44.982;20.060;2023-08-06T04:18:34;3.63;;;2.80;;
76439;SDS011;65274;44.982;20.060;2023-08-06T04:21:01;5.38;;;3.35;;
76439;SDS011;65274;44.982;20.060;2023-08-06T04:23:27;3.25;;;2.78;;
76439;SDS011;65274;44.982;20.060;2023-08-06T04:25:56;5.22;;;3.47;;
76439;SDS011;65274;44.982;20.060;2023-08-06T04:28:22;4.00;;;2.58;;
76439;SDS011;65274;44.982;20.060;2023-08-06T04:30:48;4.88;;;3.42;;
76439;SDS011;65274;44.982;20.060;2023-08-06T04:33:14;4.53;;;3.38;;
76439;SDS011;65274;44.982;20.060;2023-08-06T04:35:40;4.53;;;2.78;;
76439;SDS011;65274;44.982;20.060;2023-08-06T04:38:06;3.25;;;2.88;;
76439;SDS011;65274;44.982;20.060;2023-08-06T04:40:33;5.22;;;3.60;;
76439;SDS011;65274;44.982;20.060;2023-08-06T04:42:59;5.28;;;3.40;;
76439;SDS011;65274;44.982;20.060;2023-08-06T04:45:25;5.00;;;4.25;;
76439;SDS011;65274;44.982;20.060;2023-08-06T04:47:51;6.95;;;4.30;;
76439;SDS011;65274;44.982;20.060;2023-08-06T04:50:18;6.85;;;3.90;;
76439;SDS011;65274;44.982;20.060;2023-08-06T04:52:44;6.35;;;4.32;;
76439;SDS011;65274;44.982;20.060;2023-08-06T04:55:10;9.95;;;5.97;;
76439;SDS011;65274;44.982;20.060;2023-08-06T04:57:36;5.03;;;3.78;;
76439;SDS011;65274;44.982;20.060;2023-08-06T05:00:02;5.47;;;4.35;;
76439;SDS011;65274;44.982;20.060;2023-08-06T05:02:29;4.35;;;3.13;;
76439;SDS011;65274;44.982;20.060;2023-08-06T05:04:57;4.60;;;3.35;;
76439;SDS011;65274;44.982;20.060;2023-08-06T05:07:23;4.03;;;3.03;;
76439;SDS011;65274;44.982;20.060;2023-08-06T05:09:49;6.18;;;4.78;;
76439;SDS011;65274;44.982;20.060;2023-08-06T05:12:15;6.63;;;3.97;;
76439;SDS011;65274;44.982;20.060;2023-08-06T05:14:41;6.78;;;5.15;;
76439;SDS011;65274;44.982;20.060;2023-08-06T05:17:07;6.13;;;4.03;;
76439;SDS011;65274;44.982;20.060;2023-08-06T05:19:33;5.80;;;4.35;;
76439;SDS011;65274;44.982;20.060;2023-08-06T05:21:59;8.23;;;5.30;;
76439;SDS011;65274;44.982;20.060;2023-08-06T05:24:27;13.13;;;7.23;;
76439;SDS011;65274;44.982;20.060;2023-08-06T05:26:53;8.90;;;6.25;;
76439;SDS011;65274;44.982;20.060;2023-08-06T05:29:19;9.07;;;6.85;;
76439;SDS011;65274;44.982;20.060;2023-08-06T05:31:45;11.98;;;7.03;;
76439;SDS011;65274;44.982;20.060;2023-08-06T05:34:11;6.47;;;4.88;;
76439;SDS011;65274;44.982;20.060;2023-08-06T05:36:37;6.70;;;5.55;;
76439;SDS011;65274;44.982;20.060;2023-08-06T05:39:03;14.13;;;8.63;;
76439;SDS011;65274;44.982;20.060;2023-08-06T05:41:29;7.05;;;5.53;;
76439;SDS011;65274;44.982;20.060;2023-08-06T05:43:55;5.50;;;4.07;;
76439;SDS011;65274;44.982;20.060;2023-08-06T05:46:21;7.18;;;5.65;;
76439;SDS011;65274;44.982;20.060;2023-08-06T05:48:48;5.20;;;4.38;;
76439;SDS011;65274;44.982;20.060;2023-08-06T05:51:16;9.30;;;5.83;;
76439;SDS011;65274;44.982;20.060;2023-08-06T05:53:42;7.18;;;5.32;;
76439;SDS011;65274;44.982;20.060;2023-08-06T05:56:08;6.55;;;4.80;;
76439;SDS011;65274;44.982;20.060;2023-08-06T05:58:34;7.47;;;5.07;;
76439;SDS011;65274;44.982;20.060;2023-08-06T06:01:00;5.68;;;4.88;;
76439;SDS011;65274;44.982;20.060;2023-08-06T06:03:26;6.20;;;4.18;;
76439;SDS011;65274;44.982;20.060;2023-08-06T06:05:52;7.93;;;4.60;;
76439;SDS011;65274;44.982;20.060;2023-08-06T06:08:18;12.60;;;8.27;;
76439;SDS011;65274;44.982;20.060;2023-08-06T06:10:44;12.75;;;8.80;;
76439;SDS011;65274;44.982;20.060;2023-08-06T06:13:10;10.40;;;7.30;;
76439;SDS011;65274;44.982;20.060;2023-08-06T06:15:36;8.13;;;5.03;;
76439;SDS011;65274;44.982;20.060;2023-08-06T06:18:03;5.75;;;4.15;;
76439;SDS011;65274;44.982;20.060;2023-08-06T06:20:31;5.32;;;4.47;;
76439;SDS011;65274;44.982;20.060;2023-08-06T06:22:57;7.75;;;4.60;;
76439;SDS011;65274;44.982;20.060;2023-08-06T06:25:23;11.98;;;5.22;;
76439;SDS011;65274;44.982;20.060;2023-08-06T06:27:49;5.47;;;4.15;;
76439;SDS011;65274;44.982;20.060;2023-08-06T06:30:16;7.45;;;4.82;;
76439;SDS011;65274;44.982;20.060;2023-08-06T06:32:42;5.68;;;5.05;;
76439;SDS011;65274;44.982;20.060;2023-08-06T06:35:08;7.88;;;5.13;;
76439;SDS011;65274;44.982;20.060;2023-08-06T06:37:34;6.63;;;5.35;;
76439;SDS011;65274;44.982;20.060;2023-08-06T06:40:00;6.13;;;4.50;;
76439;SDS011;65274;44.982;20.060;2023-08-06T06:42:26;7.93;;;6.22;;
76439;SDS011;65274;44.982;20.060;2023-08-06T06:44:52;7.57;;;5.63;;
76439;SDS011;65274;44.982;20.060;2023-08-06T06:47:18;7.55;;;4.95;;
76439;SDS011;65274;44.982;20.060;2023-08-06T06:49:44;5.90;;;4.05;;
76439;SDS011;65274;44.982;20.060;2023-08-06T06:52:10;8.10;;;6.25;;
76439;SDS011;65274;44.982;20.060;2023-08-06T06:54:36;7.55;;;5.05;;
76439;SDS011;65274;44.982;20.060;2023-08-06T06:57:03;8.07;;;5.05;;
76439;SDS011;65274;44.982;20.060;2023-08-06T06:59:29;6.70;;;4.93;;
76439;SDS011;65274;44.982;20.060;2023-08-06T07:01:55;7.63;;;5.53;;
76439;SDS011;65274;44.982;20.060;2023-08-06T07:04:21;5.40;;;4.30;;
76439;SDS011;65274;44.982;20.060;2023-08-06T07:06:47;5.90;;;4.95;;
76439;SDS011;65274;44.982;20.060;2023-08-06T07:09:13;7.45;;;5.43;;
76439;SDS011;65274;44.982;20.060;2023-08-06T07:11:39;5.28;;;3.70;;
76439;SDS011;65274;44.982;20.060;2023-08-06T07:14:08;8.20;;;4.57;;
76439;SDS011;65274;44.982;20.060;2023-08-06T07:16:34;5.35;;;4.22;;
76439;SDS011;65274;44.982;20.060;2023-08-06T07:19:00;5.90;;;4.70;;
76439;SDS011;65274;44.982;20.060;2023-08-06T07:21:26;6.00;;;5.18;;
76439;SDS011;65274;44.982;20.060;2023-08-06T07:23:52;6.68;;;6.03;;
76439;SDS011;65274;44.982;20.060;2023-08-06T07:26:19;9.18;;;6.05;;
76439;SDS011;65274;44.982;20.060;2023-08-06T07:28:45;4.85;;;4.38;;
76439;SDS011;65274;44.982;20.060;2023-08-06T07:31:11;4.32;;;3.58;;
76439;SDS011;65274;44.982;20.060;2023-08-06T07:33:37;4.72;;;3.63;;
76439;SDS011;65274;44.982;20.060;2023-08-06T07:36:13;3.47;;;2.92;;
76439;SDS011;65274;44.982;20.060;2023-08-06T07:38:39;3.17;;;2.88;;
76439;SDS011;65274;44.982;20.060;2023-08-06T07:41:06;4.05;;;2.08;;
76439;SDS011;65274;44.982;20.060;2023-08-06T07:43:32;2.25;;;2.05;;
76439;SDS011;65274;44.982;20.060;2023-08-06T07:45:58;1.80;;;1.70;;
76439;SDS011;65274;44.982;20.060;2023-08-06T07:48:27;2.72;;;1.80;;
76439;SDS011;65274;44.982;20.060;2023-08-06T07:50:54;2.00;;;1.80;;
76439;SDS011;65274;44.982;20.060;2023-08-06T07:53:21;1.60;;;1.50;;
76439;SDS011;65274;44.982;20.060;2023-08-06T07:55:50;1.67;;;1.52;;
76439;SDS011;65274;44.982;20.060;2023-08-06T07:58:17;2.33;;;1.92;;
76439;SDS011;65274;44.982;20.060;2023-08-06T08:00:43;2.60;;;2.40;;
76439;SDS011;65274;44.982;20.060;2023-08-06T08:03:11;1.85;;;1.67;;
76439;SDS011;65274;44.982;20.060;2023-08-06T08:05:38;2.55;;;2.20;;
76439;SDS011;65274;44.982;20.060;2023-08-06T08:08:04;2.55;;;2.33;;
76439;SDS011;65274;44.982;20.060;2023-08-06T08:10:31;3.20;;;2.45;;
76439;SDS011;65274;44.982;20.060;2023-08-06T08:12:57;2.08;;;1.75;;
76439;SDS011;65274;44.982;20.060;2023-08-06T08:15:24;1.30;;;1.20;;
76439;SDS011;65274;44.982;20.060;2023-08-06T08:17:51;1.77;;;1.67;;
76439;SDS011;65274;44.982;20.060;2023-08-06T08:20:17;1.92;;;1.83;;
76439;SDS011;65274;44.982;20.060;2023-08-06T08:22:43;1.85;;;1.48;;
76439;SDS011;65274;44.982;20.060;2023-08-06T08:25:10;1.48;;;1.38;;
76439;SDS011;65274;44.982;20.060;2023-08-06T08:27:36;1.13;;;1.10;;
76439;SDS011;65274;44.982;20.060;2023-08-06T08:30:02;1.48;;;1.10;;
76439;SDS011;65274;44.982;20.060;2023-08-06T08:32:28;1.30;;;1.20;;
76439;SDS011;65274;44.982;20.060;2023-08-06T08:34:54;0.75;;;0.75;;
76439;SDS011;65274;44.982;20.060;2023-08-06T08:37:20;1.58;;;1.20;;
76439;SDS011;65274;44.982;20.060;2023-08-06T08:39:46;2.40;;;1.80;;
76439;SDS011;65274;44.982;20.060;2023-08-06T08:42:12;3.47;;;1.65;;
76439;SDS011;65274;44.982;20.060;2023-08-06T08:44:38;1.27;;;1.17;;
76439;SDS011;65274;44.982;20.060;2023-08-06T08:47:09;1.10;;;1.00;;
76439;SDS011;65274;44.982;20.060;2023-08-06T08:49:36;1.13;;;1.10;;
76439;SDS011;65274;44.982;20.060;2023-08-06T08:52:03;1.38;;;1.10;;
76439;SDS011;65274;44.982;20.060;2023-08-06T08:54:38;2.85;;;2.10;;
76439;SDS011;65274;44.982;20.060;2023-08-06T08:57:04;1.00;;;1.00;;
76439;SDS011;65274;44.982;20.060;2023-08-06T08:59:32;1.17;;;1.07;;
76439;SDS011;65274;44.982;20.060;2023-08-06T09:02:00;1.17;;;0.95;;
76439;SDS011;65274;44.982;20.060;2023-08-06T09:04:26;0.80;;;0.80;;
76439;SDS011;65274;44.982;20.060;2023-08-06T09:06:52;0.80;;;0.80;;
76439;SDS011;65274;44.982;20.060;2023-08-06T09:09:41;1.02;;;0.93;;
76439;SDS011;65274;44.982;20.060;2023-08-06T09:12:14;0.73;;;0.57;;
76439;SDS011;65274;44.982;20.060;2023-08-06T09:14:40;0.60;;;0.60;;
76439;SDS011;65274;44.982;20.060;2023-08-06T09:17:07;1.00;;;1.00;;
76439;SDS011;65274;44.982;20.060;2023-08-06T09:19:35;0.70;;;0.70;;
76439;SDS011;65274;44.982;20.060;2023-08-06T09:22:01;0.45;;;0.45;;
76439;SDS011;65274;44.982;20.060;2023-08-06T09:24:27;0.68;;;0.68;;
76439;SDS011;65274;44.982;20.060;2023-08-06T09:26:54;0.40;;;0.40;;
76439;SDS011;65274;44.982;20.060;2023-08-06T09:29:20;0.60;;;0.60;;
76439;SDS011;65274;44.982;20.060;2023-08-06T09:31:47;0.47;;;0.47;;
76439;SDS011;65274;44.982;20.060;2023-08-06T09:34:16;0.40;;;0.40;;
76439;SDS011;65274;44.982;20.060;2023-08-06T09:36:43;0.40;;;0.40;;
76439;SDS011;65274;44.982;20.060;2023-08-06T09:39:18;0.40;;;0.40;;
76439;SDS011;65274;44.982;20.060;2023-08-06T09:41:45;0.47;;;0.47;;
76439;SDS011;65274;44.982;20.060;2023-08-06T09:44:16;0.57;;;0.50;;
76439;SDS011;65274;44.982;20.060;2023-08-06T09:46:46;0.32;;;0.32;;
76439;SDS011;65274;44.982;20.060;2023-08-06T09:49:13;0.30;;;0.30;;
76439;SDS011;65274;44.982;20.060;2023-08-06T09:51:39;0.40;;;0.40;;
76439;SDS011;65274;44.982;20.060;2023-08-06T09:54:05;0.30;;;0.30;;
76439;SDS011;65274;44.982;20.060;2023-08-06T09:56:31;0.32;;;0.32;;
76439;SDS011;65274;44.982;20.060;2023-08-06T09:59:02;0.60;;;0.60;;
76439;SDS011;65274;44.982;20.060;2023-08-06T10:01:31;0.40;;;0.40;;
76439;SDS011;65274;44.982;20.060;2023-08-06T10:03:58;0.52;;;0.52;;
76439;SDS011;65274;44.982;20.060;2023-08-06T10:06:25;0.50;;;0.45;;
76439;SDS011;65274;44.982;20.060;2023-08-06T10:08:52;0.65;;;0.65;;
76439;SDS011;65274;44.982;20.060;2023-08-06T10:11:18;0.73;;;0.50;;
76439;SDS011;65274;44.982;20.060;2023-08-06T10:13:45;0.73;;;0.73;;
76439;SDS011;65274;44.982;20.060;2023-08-06T10:16:12;4.07;;;0.73;;
76439;SDS011;65274;44.982;20.060;2023-08-06T10:18:38;0.70;;;0.70;;
76439;SDS011;65274;44.982;20.060;2023-08-06T10:21:07;0.55;;;0.55;;
76439;SDS011;65274;44.982;20.060;2023-08-06T10:23:33;0.60;;;0.60;;
76439;SDS011;65274;44.982;20.060;2023-08-06T10:26:00;0.40;;;0.40;;
76439;SDS011;65274;44.982;20.060;2023-08-06T10:28:36;1.33;;;0.70;;
76439;SDS011;65274;44.982;20.060;2023-08-06T10:33:44;0.63;;;0.63;;
76439;SDS011;65274;44.982;20.060;2023-08-06T10:36:11;0.50;;;0.50;;
76439;SDS011;65274;44.982;20.060;2023-08-06T10:38:47;0.60;;;0.60;;
76439;SDS011;65274;44.982;20.060;2023-08-06T10:41:34;2.45;;;0.32;;
76439;SDS011;65274;44.982;20.060;2023-08-06T10:44:05;0.30;;;0.30;;
76439;SDS011;65274;44.982;20.060;2023-08-06T10:46:35;0.57;;;0.55;;
76439;SDS011;65274;44.982;20.060;2023-08-06T10:49:01;0.90;;;0.60;;
76439;SDS011;65274;44.982;20.060;2023-08-06T10:51:27;0.68;;;0.68;;
76439;SDS011;65274;44.982;20.060;2023-08-06T10:53:53;0.88;;;0.73;;
76439;SDS011;65274;44.982;20.060;2023-08-06T10:56:22;0.40;;;0.30;;
76439;SDS011;65274;44.982;20.060;2023-08-06T10:58:49;0.68;;;0.68;;
76439;SDS011;65274;44.982;20.060;2023-08-06T11:01:16;0.82;;;0.50;;
76439;SDS011;65274;44.982;20.060;2023-08-06T11:03:42;0.57;;;0.57;;
76439;SDS011;65274;44.982;20.060;2023-08-06T11:06:09;0.55;;;0.50;;
76439;SDS011;65274;44.982;20.060;2023-08-06T11:08:36;0.50;;;0.50;;
76439;SDS011;65274;44.982;20.060;2023-08-06T11:11:09;0.35;;;0.35;;
76439;SDS011;65274;44.982;20.060;2023-08-06T11:13:36;0.40;;;0.40;;
76439;SDS011;65274;44.982;20.060;2023-08-06T11:16:05;0.10;;;0.10;;
76439;SDS011;65274;44.982;20.060;2023-08-06T11:18:32;0.30;;;0.30;;
76439;SDS011;65274;44.982;20.060;2023-08-06T11:20:59;0.30;;;0.30;;
76439;SDS011;65274;44.982;20.060;2023-08-06T11:23:29;0.17;;;0.17;;
76439;SDS011;65274;44.982;20.060;2023-08-06T11:25:56;0.43;;;0.43;;
76439;SDS011;65274;44.982;20.060;2023-08-06T11:28:22;1.35;;;0.38;;
76439;SDS011;65274;44.982;20.060;2023-08-06T11:30:48;0.20;;;0.20;;
76439;SDS011;65274;44.982;20.060;2023-08-06T11:33:17;0.20;;;0.20;;
76439;SDS011;65274;44.982;20.060;2023-08-06T11:35:45;0.30;;;0.30;;
76439;SDS011;65274;44.982;20.060;2023-08-06T11:38:13;0.10;;;0.10;;
76439;SDS011;65274;44.982;20.060;2023-08-06T11:40:39;0.25;;;0.25;;
76439;SDS011;65274;44.982;20.060;2023-08-06T11:43:05;0.30;;;0.30;;
76439;SDS011;65274;44.982;20.060;2023-08-06T11:50:24;0.10;;;0.10;;
76439;SDS011;65274;44.982;20.060;2023-08-06T11:52:52;0.47;;;0.30;;
76439;SDS011;65274;44.982;20.060;2023-08-06T11:55:22;0.57;;;0.40;;
76439;SDS011;65274;44.982;20.060;2023-08-06T11:57:48;0.50;;;0.30;;
76439;SDS011;65274;44.982;20.060;2023-08-06T12:00:14;0.47;;;0.30;;
76439;SDS011;65274;44.982;20.060;2023-08-06T12:02:43;0.20;;;0.20;;
76439;SDS011;65274;44.982;20.060;2023-08-06T12:05:10;0.43;;;0.32;;
76439;SDS011;65274;44.982;20.060;2023-08-06T12:10:03;0.30;;;0.30;;
76439;SDS011;65274;44.982;20.060;2023-08-06T12:12:29;0.30;;;0.30;;
76439;SDS011;65274;44.982;20.060;2023-08-06T12:14:55;0.20;;;0.20;;
76439;SDS011;65274;44.982;20.060;2023-08-06T12:17:22;0.40;;;0.40;;
76439;SDS011;65274;44.982;20.060;2023-08-06T12:19:48;0.32;;;0.32;;
76439;SDS011;65274;44.982;20.060;2023-08-06T12:22:14;1.08;;;0.50;;
76439;SDS011;65274;44.982;20.060;2023-08-06T12:24:41;0.40;;;0.40;;
76439;SDS011;65274;44.982;20.060;2023-08-06T12:27:07;0.22;;;0.22;;
76439;SDS011;65274;44.982;20.060;2023-08-06T12:29:34;0.30;;;0.30;;
76439;SDS011;65274;44.982;20.060;2023-08-06T12:32:00;0.40;;;0.40;;
76439;SDS011;65274;44.982;20.060;2023-08-06T12:34:26;0.20;;;0.20;;
76439;SDS011;65274;44.982;20.060;2023-08-06T12:36:52;0.30;;;0.30;;
76439;SDS011;65274;44.982;20.060;2023-08-06T12:39:18;0.30;;;0.30;;
76439;SDS011;65274;44.982;20.060;2023-08-06T12:41:44;1.23;;;0.30;;
76439;SDS011;65274;44.982;20.060;2023-08-06T12:44:11;0.53;;;0.53;;
76439;SDS011;65274;44.982;20.060;2023-08-06T12:46:37;0.65;;;0.50;;
76439;SDS011;65274;44.982;20.060;2023-08-06T12:49:03;1.58;;;1.00;;
76439;SDS011;65274;44.982;20.060;2023-08-06T12:51:30;0.60;;;0.60;;
76439;SDS011;65274;44.982;20.060;2023-08-06T12:53:58;0.50;;;0.50;;
76439;SDS011;65274;44.982;20.060;2023-08-06T12:56:24;0.98;;;0.55;;
76439;SDS011;65274;44.982;20.060;2023-08-06T12:58:50;0.43;;;0.43;;
76439;SDS011;65274;44.982;20.060;2023-08-06T13:01:17;0.43;;;0.40;;
76439;SDS011;65274;44.982;20.060;2023-08-06T13:03:43;0.85;;;0.50;;
76439;SDS011;65274;44.982;20.060;2023-08-06T13:06:09;0.73;;;0.55;;
76439;SDS011;65274;44.982;20.060;2023-08-06T13:08:35;0.35;;;0.35;;
76439;SDS011;65274;44.982;20.060;2023-08-06T13:11:01;0.47;;;0.47;;
76439;SDS011;65274;44.982;20.060;2023-08-06T13:13:28;0.50;;;0.50;;
76439;SDS011;65274;44.982;20.060;2023-08-06T13:15:54;0.68;;;0.40;;
76439;SDS011;65274;44.982;20.060;2023-08-06T13:18:20;0.32;;;0.32;;
76439;SDS011;65274;44.982;20.060;2023-08-06T13:20:47;0.52;;;0.50;;
76439;SDS011;65274;44.982;20.060;2023-08-06T13:23:14;0.43;;;0.30;;
76439;SDS011;65274;44.982;20.060;2023-08-06T13:25:41;0.20;;;0.20;;
76439;SDS011;65274;44.982;20.060;2023-08-06T13:28:07;0.57;;;0.40;;
76439;SDS011;65274;44.982;20.060;2023-08-06T13:30:33;1.25;;;0.30;;
76439;SDS011;65274;44.982;20.060;2023-08-06T13:33:02;0.17;;;0.17;;
76439;SDS011;65274;44.982;20.060;2023-08-06T13:35:29;0.20;;;0.20;;
76439;SDS011;65274;44.982;20.060;2023-08-06T13:37:55;0.20;;;0.20;;
76439;SDS011;65274;44.982;20.060;2023-08-06T13:40:21;0.50;;;0.50;;
76439;SDS011;65274;44.982;20.060;2023-08-06T13:42:47;0.30;;;0.30;;
76439;SDS011;65274;44.982;20.060;2023-08-06T13:45:13;0.38;;;0.38;;
76439;SDS011;65274;44.982;20.060;2023-08-06T13:47:40;0.43;;;0.40;;
76439;SDS011;65274;44.982;20.060;2023-08-06T13:50:07;1.45;;;0.28;;
76439;SDS011;65274;44.982;20.060;2023-08-06T13:52:33;2.45;;;0.40;;
76439;SDS011;65274;44.982;20.060;2023-08-06T13:55:01;0.20;;;0.20;;
76439;SDS011;65274;44.982;20.060;2023-08-06T13:57:28;0.30;;;0.30;;
76439;SDS011;65274;44.982;20.060;2023-08-06T13:59:55;0.28;;;0.28;;
76439;SDS011;65274;44.982;20.060;2023-08-06T14:02:22;0.30;;;0.30;;
76439;SDS011;65274;44.982;20.060;2023-08-06T14:04:48;0.10;;;0.10;;
76439;SDS011;65274;44.982;20.060;2023-08-06T14:07:14;0.35;;;0.35;;
76439;SDS011;65274;44.982;20.060;2023-08-06T14:09:40;0.30;;;0.30;;
76439;SDS011;65274;44.982;20.060;2023-08-06T14:12:07;0.10;;;0.10;;
76439;SDS011;65274;44.982;20.060;2023-08-06T14:14:33;0.20;;;0.20;;
76439;SDS011;65274;44.982;20.060;2023-08-06T14:16:59;0.20;;;0.20;;
76439;SDS011;65274;44.982;20.060;2023-08-06T14:19:25;0.20;;;0.20;;
76439;SDS011;65274;44.982;20.060;2023-08-06T14:21:51;0.20;;;0.20;;
76439;SDS011;65274;44.982;20.060;2023-08-06T14:24:18;0.30;;;0.20;;
76439;SDS011;65274;44.982;20.060;2023-08-06T14:26:44;0.20;;;0.20;;
76439;SDS011;65274;44.982;20.060;2023-08-06T14:29:10;2.05;;;0.40;;
76439;SDS011;65274;44.982;20.060;2023-08-06T14:31:38;0.30;;;0.30;;
76439;SDS011;65274;44.982;20.060;2023-08-06T14:34:04;0.40;;;0.40;;
76439;SDS011;65274;44.982;20.060;2023-08-06T14:36:30;0.20;;;0.20;;
76439;SDS011;65274;44.982;20.060;2023-08-06T14:38:56;0.17;;;0.17;;
76439;SDS011;65274;44.982;20.060;2023-08-06T14:41:22;0.40;;;0.40;;
76439;SDS011;65274;44.982;20.060;2023-08-06T14:43:49;0.38;;;0.38;;
76439;SDS011;65274;44.982;20.060;2023-08-06T14:46:15;0.57;;;0.40;;
76439;SDS011;65274;44.982;20.060;2023-08-06T14:48:41;0.30;;;0.30;;
76439;SDS011;65274;44.982;20.060;2023-08-06T14:51:08;0.40;;;0.40;;